createdAt,value
2022-10-15T00:04:43.613Z,0
2022-10-15T00:09:43.659Z,0
2022-10-15T00:14:43.591Z,0
2022-10-15T00:24:52.284Z,0
2022-10-15T00:29:45.492Z,0
2022-10-15T00:34:43.781Z,0
2022-10-15T00:39:43.967Z,0
2022-10-15T00:44:43.975Z,0
2022-10-15T00:49:43.721Z,0
2022-10-15T00:54:43.597Z,0
2022-10-15T00:59:43.765Z,0
2022-10-15T01:04:43.610Z,0
2022-10-15T01:09:43.699Z,0
2022-10-15T01:14:43.672Z,0
2022-10-15T01:19:43.606Z,0
2022-10-15T01:24:43.669Z,0
2022-10-15T01:29:43.683Z,0
2022-10-15T01:34:43.673Z,0
2022-10-15T01:39:43.711Z,0
2022-10-15T01:44:43.701Z,0
2022-10-15T01:49:43.574Z,0
2022-10-15T01:54:43.770Z,0
2022-10-15T01:59:43.778Z,0
2022-10-15T02:04:43.662Z,0
2022-10-15T02:09:43.743Z,0
2022-10-15T02:14:43.687Z,0
2022-10-15T02:19:43.634Z,0
2022-10-15T02:24:43.569Z,0
2022-10-15T02:29:43.580Z,0
2022-10-15T02:34:43.608Z,0
2022-10-15T02:39:43.622Z,0
2022-10-15T02:44:43.605Z,0
2022-10-15T02:49:43.736Z,0
2022-10-15T02:54:43.592Z,0
2022-10-15T02:59:43.582Z,0
2022-10-15T03:04:43.623Z,0
2022-10-15T03:09:43.599Z,0
2022-10-15T03:14:43.712Z,0
2022-10-15T03:19:43.616Z,0
2022-10-15T03:24:43.622Z,0
2022-10-15T03:29:43.711Z,0
2022-10-15T03:34:43.631Z,0
2022-10-15T03:39:43.646Z,0
2022-10-15T03:44:43.654Z,0
2022-10-15T03:49:43.613Z,0
2022-10-15T03:54:43.644Z,0
2022-10-15T04:04:43.722Z,0
2022-10-15T04:09:43.655Z,0
2022-10-15T04:14:43.739Z,0
2022-10-15T04:19:43.665Z,0
2022-10-15T04:24:43.627Z,0
2022-10-15T04:29:43.903Z,0
2022-10-15T04:34:43.653Z,0
2022-10-15T04:39:43.636Z,0
2022-10-15T04:44:43.673Z,0
2022-10-15T04:49:43.627Z,0
2022-10-15T04:54:43.657Z,0
2022-10-15T04:59:43.728Z,0
2022-10-15T05:04:43.718Z,0
2022-10-15T05:09:46.277Z,0
2022-10-15T05:14:43.730Z,0
2022-10-15T05:19:43.650Z,0
2022-10-15T05:24:43.804Z,256
2022-10-15T05:29:43.659Z,256
2022-10-15T05:34:43.652Z,256
2022-10-15T05:39:43.612Z,257
2022-10-15T05:44:43.635Z,260
2022-10-15T05:49:43.602Z,271
2022-10-15T05:54:43.680Z,278
2022-10-15T05:59:43.767Z,279
2022-10-15T06:04:43.753Z,294
2022-10-15T06:09:43.656Z,300
2022-10-15T06:14:43.689Z,302
2022-10-15T06:19:43.717Z,298
2022-10-15T06:24:43.665Z,293
2022-10-15T06:29:43.666Z,303
2022-10-15T06:34:43.695Z,307
2022-10-15T06:39:43.762Z,323
2022-10-15T06:44:43.701Z,338
2022-10-15T06:49:43.763Z,340
2022-10-15T06:54:43.730Z,340
2022-10-15T06:59:43.713Z,326
2022-10-15T07:04:43.705Z,345
2022-10-15T07:09:43.709Z,403
2022-10-15T07:14:43.694Z,504
2022-10-15T07:19:43.666Z,444
2022-10-15T07:24:43.672Z,440
2022-10-15T07:29:43.672Z,418
2022-10-15T07:34:43.703Z,425
2022-10-15T07:39:43.654Z,437
2022-10-15T07:44:43.693Z,469
2022-10-15T07:49:43.677Z,450
2022-10-15T07:54:43.754Z,480
2022-10-15T07:59:45.103Z,471
2022-10-15T08:04:43.800Z,438
2022-10-15T08:09:43.782Z,410
2022-10-15T08:14:43.691Z,404
2022-10-15T08:19:43.627Z,389
2022-10-15T08:24:43.701Z,405
2022-10-15T08:29:43.666Z,450
2022-10-15T08:34:46.599Z,461
2022-10-15T08:39:43.708Z,513
2022-10-15T08:44:43.693Z,428
2022-10-15T08:49:43.686Z,440
2022-10-15T08:54:43.650Z,462
2022-10-15T08:59:43.703Z,521
2022-10-15T09:04:43.660Z,517
2022-10-15T09:09:43.759Z,685
2022-10-15T09:14:43.672Z,567
2022-10-15T09:19:43.637Z,616
2022-10-15T09:24:43.709Z,763
2022-10-15T09:29:43.861Z,594
2022-10-15T09:34:43.649Z,653
2022-10-15T09:39:43.886Z,918
2022-10-15T09:44:43.733Z,1373
2022-10-15T09:49:43.704Z,1243
2022-10-15T09:54:43.783Z,1114
2022-10-15T09:59:43.824Z,1053
2022-10-15T10:04:43.725Z,773
2022-10-15T10:09:43.733Z,692
2022-10-15T10:14:43.687Z,664
2022-10-15T10:19:43.691Z,766
2022-10-15T10:24:44.904Z,875
2022-10-15T10:29:43.831Z,1010
2022-10-15T10:34:45.607Z,925
2022-10-15T10:39:43.667Z,1167
2022-10-15T10:44:43.672Z,1561
2022-10-15T10:49:43.711Z,1093
2022-10-15T10:54:43.740Z,1405
2022-10-15T10:59:43.888Z,1731
2022-10-15T11:04:43.723Z,2246
2022-10-15T11:09:43.804Z,1921
2022-10-15T11:14:43.734Z,2066
2022-10-15T11:20:12.863Z,1591
2022-10-15T11:24:48.850Z,1149
2022-10-15T11:29:43.731Z,1070
2022-10-15T11:34:43.706Z,1115
2022-10-15T11:39:43.707Z,1345
2022-10-15T11:44:43.704Z,989
2022-10-15T11:49:43.744Z,901
2022-10-15T11:54:43.818Z,508
2022-10-15T11:59:43.863Z,586
2022-10-15T12:04:43.687Z,377
2022-10-15T12:09:43.728Z,404
2022-10-15T12:14:43.754Z,464
2022-10-15T12:19:43.765Z,455
2022-10-15T12:24:43.725Z,1219
2022-10-15T12:29:43.832Z,926
2022-10-15T12:34:43.778Z,571
2022-10-15T12:39:52.390Z,350
2022-10-15T12:44:43.707Z,656
2022-10-15T12:49:43.723Z,1258
2022-10-15T12:54:43.707Z,815
2022-10-15T12:59:43.722Z,880
2022-10-15T13:04:43.699Z,806
2022-10-15T13:09:43.698Z,719
2022-10-15T13:14:43.752Z,651
2022-10-15T13:19:43.707Z,545
2022-10-15T13:24:43.767Z,1086
2022-10-15T13:29:43.846Z,619
2022-10-15T13:34:43.893Z,648
2022-10-15T13:39:43.850Z,732
2022-10-15T13:54:43.783Z,594
2022-10-15T13:59:43.877Z,566
2022-10-15T14:04:43.745Z,686
2022-10-15T14:19:43.857Z,645
2022-10-15T14:24:43.746Z,720
2022-10-15T14:29:43.936Z,582
2022-10-15T14:34:43.755Z,769
2022-10-15T14:39:43.755Z,349
2022-10-15T14:44:43.795Z,457
2022-10-15T14:49:43.746Z,592
2022-10-15T14:54:43.821Z,690
2022-10-15T14:59:43.768Z,483
2022-10-15T15:04:43.756Z,408
2022-10-15T15:09:43.721Z,338
2022-10-15T15:14:43.757Z,366
2022-10-15T15:19:44.039Z,342
2022-10-15T15:24:43.737Z,371
2022-10-15T15:29:44.705Z,353
2022-10-15T15:34:43.777Z,325
2022-10-15T15:39:43.723Z,290
2022-10-15T15:44:43.746Z,288
2022-10-15T15:49:43.797Z,283
2022-10-15T15:54:43.768Z,292
2022-10-15T15:59:43.803Z,282
2022-10-15T16:14:43.887Z,264
2022-10-15T16:19:43.799Z,258
2022-10-15T16:24:43.769Z,257
2022-10-15T16:29:43.792Z,256
2022-10-15T16:34:43.740Z,0
2022-10-15T16:39:43.761Z,0
2022-10-15T16:44:43.931Z,0
2022-10-15T16:49:43.779Z,0
2022-10-15T16:54:43.830Z,0
2022-10-15T16:59:43.758Z,0
2022-10-15T17:04:43.831Z,0
2022-10-15T17:09:43.828Z,0
2022-10-15T17:14:43.772Z,0
2022-10-15T17:19:43.804Z,0
2022-10-15T17:24:43.814Z,0
2022-10-15T17:29:43.812Z,0
2022-10-15T17:34:43.848Z,0
2022-10-15T17:39:43.796Z,0
2022-10-15T17:44:43.777Z,0
2022-10-15T17:49:43.759Z,0
2022-10-15T17:54:43.775Z,0
2022-10-15T17:59:46.273Z,0
2022-10-15T18:04:43.771Z,0
2022-10-15T18:09:43.795Z,0
2022-10-15T18:14:43.764Z,0
2022-10-15T18:19:43.824Z,0
2022-10-15T18:24:43.805Z,0
2022-10-15T18:29:43.804Z,0
2022-10-15T18:34:43.794Z,0
2022-10-15T18:39:43.793Z,0
2022-10-15T18:44:43.770Z,0
2022-10-15T18:49:43.832Z,0
2022-10-15T18:54:43.807Z,0
2022-10-15T18:59:43.858Z,0
2022-10-15T19:04:43.857Z,0
2022-10-15T19:09:43.809Z,0
2022-10-15T19:14:43.801Z,0
2022-10-15T19:19:43.829Z,0
2022-10-15T19:24:43.807Z,0
2022-10-15T19:29:43.804Z,0
2022-10-15T19:34:43.855Z,0
2022-10-15T19:39:43.874Z,0
2022-10-15T19:44:43.877Z,0
2022-10-15T19:49:43.822Z,0
2022-10-15T19:54:43.789Z,0
2022-10-15T19:59:43.833Z,0
2022-10-15T20:04:43.887Z,0
2022-10-15T20:09:43.827Z,0
2022-10-15T20:14:43.850Z,0
2022-10-15T20:19:43.849Z,0
2022-10-15T20:24:43.855Z,0
2022-10-15T20:29:44.018Z,0
2022-10-15T20:34:43.902Z,0
2022-10-15T20:39:43.930Z,0
2022-10-15T20:44:43.851Z,0
2022-10-15T20:49:43.798Z,0
2022-10-15T20:54:43.839Z,0
2022-10-15T20:59:43.851Z,0
2022-10-15T21:04:43.896Z,0
2022-10-15T21:09:43.855Z,0
2022-10-15T21:14:43.884Z,0
2022-10-15T21:19:44.161Z,0
2022-10-15T21:24:43.923Z,0
2022-10-15T21:29:44.050Z,0
2022-10-15T21:34:43.880Z,0
2022-10-15T21:39:43.892Z,0
2022-10-15T21:44:43.857Z,0
2022-10-15T21:49:43.889Z,0
2022-10-15T21:54:43.921Z,0
2022-10-15T21:59:43.931Z,0
2022-10-15T22:04:43.899Z,0
2022-10-15T22:09:43.959Z,0
2022-10-15T22:14:43.994Z,0
2022-10-15T22:19:43.859Z,0
2022-10-15T22:24:43.865Z,0
2022-10-15T22:29:43.849Z,0
2022-10-15T22:34:43.909Z,0
2022-10-15T22:39:43.862Z,0
2022-10-15T22:44:43.843Z,0
2022-10-15T22:49:43.866Z,0
2022-10-15T22:54:43.882Z,0
2022-10-15T22:59:43.848Z,0
2022-10-15T23:04:43.885Z,0
2022-10-15T23:09:43.836Z,0
2022-10-15T23:14:43.845Z,0
2022-10-15T23:19:43.861Z,0
2022-10-15T23:24:43.842Z,0
2022-10-15T23:29:43.924Z,0
2022-10-15T23:34:43.867Z,0
2022-10-15T23:39:43.851Z,0
2022-10-15T23:44:43.853Z,0
2022-10-15T23:49:43.865Z,0
2022-10-15T23:54:43.922Z,0
2022-10-15T23:59:43.806Z,0
